createdAt,value
2023-02-11T00:01:11.376Z,84.29
2023-02-11T00:03:39.685Z,84.13
2023-02-11T00:06:11.911Z,84.18
2023-02-11T00:08:40.221Z,83.95
2023-02-11T00:11:10.416Z,84.23
2023-02-11T00:13:38.064Z,84.09
2023-02-11T00:16:10.622Z,84.10
2023-02-11T00:18:38.756Z,84.01
2023-02-11T00:21:11.636Z,84.05
2023-02-11T00:23:39.995Z,83.95
2023-02-11T00:26:17.743Z,83.94
2023-02-11T00:28:46.894Z,83.81
2023-02-11T00:31:16.222Z,83.63
2023-02-11T00:33:44.768Z,83.90
2023-02-11T00:36:16.601Z,83.60
2023-02-11T00:38:46.116Z,83.42
2023-02-11T00:41:15.615Z,83.61
2023-02-11T00:43:43.889Z,83.62
2023-02-11T00:46:12.308Z,83.31
2023-02-11T00:48:40.679Z,83.30
2023-02-11T00:51:09.090Z,83.34
2023-02-11T00:53:36.804Z,83.00
2023-02-11T00:56:05.385Z,83.12
2023-02-11T00:58:33.483Z,83.21
2023-02-11T07:01:42.283Z,76.00
2023-02-11T07:04:10.445Z,75.98
2023-02-11T07:06:38.219Z,75.66
2023-02-11T07:09:05.959Z,75.80
2023-02-11T07:11:34.072Z,75.99
2023-02-11T07:14:08.504Z,75.98
2023-02-11T07:16:36.775Z,75.65
2023-02-11T07:19:04.733Z,75.54
2023-02-11T07:21:32.569Z,75.76
2023-02-11T07:24:00.292Z,75.93
2023-02-11T07:26:29.221Z,75.84
2023-02-11T07:28:56.996Z,76.04
2023-02-11T07:31:27.436Z,75.89
2023-02-11T07:34:00.073Z,76.12
2023-02-11T07:36:29.824Z,76.05
2023-02-11T07:38:58.406Z,76.09
2023-02-11T07:41:28.296Z,76.28
2023-02-11T07:43:56.472Z,76.35
2023-02-11T07:46:27.480Z,76.46
2023-02-11T07:48:55.788Z,76.35
2023-02-11T07:51:27.171Z,76.80
2023-02-11T07:53:57.664Z,76.94
2023-02-11T07:56:25.708Z,76.90
2023-02-11T07:58:54.534Z,77.28
2023-02-11T08:01:28.472Z,77.71
2023-02-11T08:03:58.465Z,77.86
2023-02-11T08:06:29.202Z,78.08
2023-02-11T08:08:57.203Z,78.98
2023-02-11T08:11:27.737Z,78.99
2023-02-11T08:13:56.698Z,79.50
2023-02-11T08:16:27.212Z,79.88
2023-02-11T08:19:00.400Z,80.63
2023-02-11T08:21:28.688Z,80.80
2023-02-11T08:23:56.752Z,81.10
2023-02-11T08:26:29.030Z,80.95
2023-02-11T08:28:57.936Z,81.16
2023-02-11T08:31:33.385Z,81.84
2023-02-11T08:34:02.608Z,82.34
2023-02-11T08:36:34.268Z,82.85
2023-02-11T08:39:17.960Z,82.38
2023-02-11T08:41:49.383Z,82.97
2023-02-11T08:44:18.783Z,83.22
2023-02-11T08:46:47.446Z,83.40
2023-02-11T08:49:15.697Z,83.73
2023-02-11T08:51:44.131Z,83.55
2023-02-11T08:54:12.546Z,83.47
2023-02-11T08:56:40.567Z,83.62
2023-02-11T08:59:11.533Z,83.94
2023-02-11T09:01:39.565Z,84.49
2023-02-11T09:04:08.373Z,84.44
2023-02-11T09:06:36.169Z,84.66
2023-02-11T09:09:04.800Z,84.66
2023-02-11T09:11:35.241Z,84.69
2023-02-11T09:14:04.505Z,84.84
2023-02-11T09:16:35.764Z,84.81
2023-02-11T09:19:05.489Z,84.85
2023-02-11T09:21:33.571Z,84.83
2023-02-11T09:24:01.860Z,84.83
2023-02-11T09:26:32.480Z,84.75
2023-02-11T09:29:01.268Z,84.70
2023-02-11T09:31:31.391Z,84.68
2023-02-11T09:34:02.550Z,84.83
2023-02-11T09:36:34.693Z,84.84
2023-02-11T09:39:02.473Z,85.04
2023-02-11T09:42:01.276Z,84.98
2023-02-11T09:44:32.302Z,84.92
2023-02-11T09:47:06.311Z,84.90
2023-02-11T09:49:40.988Z,84.89
2023-02-11T09:52:15.780Z,84.64
2023-02-11T09:54:55.450Z,84.96
2023-02-11T09:57:36.309Z,85.09
2023-02-11T10:00:19.389Z,85.26
2023-02-11T10:03:05.576Z,85.11
2023-02-11T10:05:53.780Z,84.98
2023-02-11T10:08:40.448Z,85.23
2023-02-11T10:11:32.102Z,85.62
2023-02-11T10:14:07.494Z,85.78
2023-02-11T10:16:53.537Z,86.17
2023-02-11T10:19:43.157Z,86.52
2023-02-11T10:22:20.038Z,86.65
2023-02-11T10:24:58.576Z,86.58
2023-02-11T10:27:35.537Z,86.99
2023-02-11T10:30:28.731Z,87.08
2023-02-11T10:33:20.851Z,87.32
2023-02-11T10:35:49.080Z,87.95
2023-02-11T10:38:16.908Z,87.70
2023-02-11T10:40:45.006Z,87.94
2023-02-11T10:43:17.918Z,88.14
2023-02-11T10:45:51.420Z,88.32
2023-02-11T10:48:42.879Z,88.39
2023-02-11T10:51:18.694Z,88.62
2023-02-11T10:53:48.607Z,88.84
2023-02-11T10:56:30.468Z,88.87
2023-02-11T10:59:01.167Z,88.85
2023-02-11T11:01:53.897Z,89.08
2023-02-11T11:04:31.250Z,89.25
2023-02-11T11:07:25.609Z,89.25
2023-02-11T11:10:28.126Z,89.03
2023-02-11T11:12:56.002Z,89.19
2023-02-11T11:15:29.878Z,89.18
2023-02-11T11:18:21.401Z,89.22
2023-02-11T11:21:13.737Z,89.25
2023-02-11T11:23:49.422Z,89.14
2023-02-11T11:26:17.971Z,89.21
2023-02-11T11:28:54.671Z,89.26
2023-02-11T11:31:27.123Z,89.12
2023-02-11T11:33:58.180Z,89.37
2023-02-11T11:36:35.474Z,89.26
2023-02-11T11:39:18.683Z,89.13
2023-02-11T11:41:56.416Z,89.43
2023-02-11T11:44:32.948Z,89.80
2023-02-11T11:47:13.612Z,89.63
2023-02-11T11:49:51.219Z,89.61
2023-02-11T11:52:27.727Z,90.02
2023-02-11T11:55:11.511Z,89.94
2023-02-11T11:57:40.732Z,90.09
2023-02-11T12:00:53.682Z,90.38
2023-02-11T12:03:34.312Z,90.45
2023-02-11T12:06:26.858Z,91.11
2023-02-11T12:09:21.823Z,91.26
2023-02-11T12:12:17.257Z,91.31
2023-02-11T12:15:11.951Z,91.24
2023-02-11T12:18:06.097Z,91.21
2023-02-11T12:20:36.771Z,91.38
2023-02-11T12:23:38.748Z,91.33
2023-02-11T12:26:20.531Z,91.33
2023-02-11T12:29:16.040Z,91.34
2023-02-11T12:31:55.155Z,91.50
2023-02-11T12:34:45.341Z,91.59
2023-02-11T12:37:32.767Z,91.50
2023-02-11T12:40:17.181Z,91.37
2023-02-11T12:43:16.595Z,91.44
2023-02-11T12:45:47.141Z,91.73
2023-02-11T12:48:45.788Z,91.51
2023-02-11T12:51:32.563Z,91.36
2023-02-11T12:54:33.349Z,91.23
2023-02-11T12:57:17.546Z,91.21
2023-02-11T12:59:47.836Z,91.49
2023-02-11T13:02:30.650Z,91.37
2023-02-11T13:05:04.603Z,91.19
2023-02-11T13:07:41.805Z,91.18
2023-02-11T13:10:21.843Z,90.93
2023-02-11T13:13:10.425Z,90.92
2023-02-11T13:15:39.264Z,90.67
2023-02-11T13:18:22.506Z,90.70
2023-02-11T13:21:10.448Z,90.59
2023-02-11T13:24:07.907Z,90.67
2023-02-11T13:26:47.596Z,90.60
2023-02-11T13:29:24.629Z,90.34
2023-02-11T13:32:12.154Z,90.37
2023-02-11T13:34:43.001Z,90.21
2023-02-11T13:37:36.326Z,90.51
2023-02-11T13:40:19.088Z,90.39
2023-02-11T13:42:53.399Z,90.25
2023-02-11T13:45:31.582Z,90.43
2023-02-11T13:48:02.220Z,90.55
2023-02-11T13:50:35.511Z,90.71
2023-02-11T13:53:07.276Z,90.81
2023-02-11T13:55:36.019Z,91.08
2023-02-11T13:58:06.709Z,90.94
2023-02-11T14:00:34.546Z,90.93
2023-02-11T14:03:45.818Z,90.87
2023-02-11T14:06:36.013Z,91.17
2023-02-11T14:09:09.690Z,91.43
2023-02-11T14:11:43.015Z,91.54
2023-02-11T14:14:33.944Z,91.25
2023-02-11T14:17:07.782Z,91.60
2023-02-11T14:19:41.159Z,91.39
2023-02-11T14:22:19.851Z,91.48
2023-02-11T14:25:05.640Z,91.68
2023-02-11T14:27:39.323Z,91.69
2023-02-11T14:30:45.794Z,91.80
2023-02-11T14:33:16.260Z,92.15
2023-02-11T14:35:58.681Z,91.97
2023-02-11T14:38:26.297Z,92.10
2023-02-11T14:41:14.959Z,92.05
2023-02-11T14:43:47.989Z,92.30
2023-02-11T14:46:18.869Z,92.48
2023-02-11T14:48:50.613Z,92.67
2023-02-11T14:51:23.629Z,92.66
2023-02-11T14:53:55.665Z,92.61
2023-02-11T14:56:26.726Z,92.49
2023-02-11T14:58:55.388Z,92.61
2023-02-11T15:01:35.447Z,92.90
2023-02-11T15:04:06.412Z,92.76
2023-02-11T15:06:40.124Z,92.79
2023-02-11T15:09:17.305Z,92.67
2023-02-11T15:11:48.633Z,92.78
2023-02-11T15:14:36.586Z,92.64
2023-02-11T15:17:08.235Z,92.81
2023-02-11T15:19:41.259Z,92.63
2023-02-11T15:22:18.832Z,92.93
2023-02-11T15:24:59.218Z,93.19
2023-02-11T15:27:27.396Z,92.91
2023-02-11T15:29:55.212Z,93.02
2023-02-11T15:32:26.022Z,92.98
2023-02-11T15:34:54.520Z,93.10
2023-02-11T15:37:26.106Z,93.17
2023-02-11T15:39:54.285Z,93.39
2023-02-11T15:42:40.841Z,93.62
2023-02-11T15:45:15.082Z,93.29
2023-02-11T15:47:50.940Z,92.86
2023-02-11T15:50:26.040Z,93.37
2023-02-11T15:52:55.674Z,93.48
2023-02-11T15:55:27.260Z,93.62
2023-02-11T15:57:58.531Z,93.81
2023-02-11T16:00:46.401Z,93.43
2023-02-11T16:03:33.184Z,93.58
2023-02-11T16:06:22.107Z,93.44
2023-02-11T16:09:04.839Z,93.33
2023-02-11T16:11:58.249Z,93.60
2023-02-11T16:14:39.419Z,93.55
2023-02-11T16:17:26.237Z,93.59
2023-02-11T16:19:54.892Z,93.76
2023-02-11T16:22:30.543Z,93.81
2023-02-11T16:25:00.033Z,93.66
2023-02-11T16:27:41.137Z,93.78
2023-02-11T16:30:29.217Z,93.72
2023-02-11T16:32:56.961Z,93.59
2023-02-11T16:35:24.737Z,93.83
2023-02-11T16:37:52.528Z,93.65
2023-02-11T16:40:20.351Z,93.92
2023-02-11T16:42:47.997Z,93.60
2023-02-11T16:45:15.856Z,93.72
2023-02-11T16:47:43.639Z,93.62
2023-02-11T16:50:20.847Z,93.59
2023-02-11T16:52:49.010Z,93.72
2023-02-11T16:55:17.278Z,93.68
2023-02-11T16:57:45.078Z,93.93
2023-02-11T17:00:16.664Z,93.61
2023-02-11T17:02:44.459Z,93.62
2023-02-11T17:05:24.915Z,93.93
2023-02-11T17:07:52.784Z,93.69
2023-02-11T17:10:23.190Z,93.96
2023-02-11T17:12:51.364Z,93.79
2023-02-11T17:15:19.142Z,93.79
2023-02-11T17:17:46.832Z,93.92
2023-02-11T17:20:15.377Z,93.68
2023-02-11T17:22:43.093Z,93.87
2023-02-11T17:25:11.302Z,93.48
2023-02-11T17:27:39.066Z,93.53
2023-02-11T17:30:07.616Z,93.67
2023-02-11T17:32:36.552Z,93.56
2023-02-11T17:35:06.427Z,93.60
2023-02-11T17:37:34.098Z,93.35
2023-02-11T17:40:01.846Z,93.64
2023-02-11T17:42:31.313Z,93.57
2023-02-11T17:44:59.065Z,93.68
2023-02-11T17:47:26.757Z,93.85
2023-02-11T17:49:54.465Z,93.71
2023-02-11T17:52:24.169Z,93.61
2023-02-11T17:54:51.964Z,93.77
2023-02-11T17:57:19.716Z,93.82
2023-02-11T17:59:47.573Z,93.93
2023-02-11T18:02:15.351Z,93.59
2023-02-11T18:04:43.144Z,93.64
2023-02-11T18:07:10.909Z,93.69
2023-02-11T18:09:40.427Z,93.64
2023-02-11T18:12:09.067Z,93.56
2023-02-11T18:14:40.441Z,93.55
2023-02-11T18:17:08.976Z,93.83
2023-02-11T18:19:37.722Z,93.89
2023-02-11T18:22:05.508Z,93.49
2023-02-11T18:24:33.241Z,93.75
2023-02-11T18:27:01.000Z,93.43
2023-02-11T18:29:28.810Z,93.79
2023-02-11T18:31:57.420Z,93.85
2023-02-11T18:34:25.716Z,93.89
2023-02-11T18:36:53.578Z,94.01
2023-02-11T18:39:24.271Z,93.97
2023-02-11T18:41:56.774Z,93.86
2023-02-11T18:44:25.565Z,93.65
2023-02-11T18:46:53.716Z,93.84
2023-02-11T18:49:21.430Z,93.76
2023-02-11T18:51:49.154Z,93.96
2023-02-11T18:54:16.973Z,93.66
2023-02-11T18:56:45.144Z,93.70
2023-02-11T18:59:13.077Z,93.86
2023-02-11T19:01:43.391Z,93.84
2023-02-11T19:04:11.443Z,93.79
2023-02-11T19:06:39.627Z,94.04
2023-02-11T19:09:17.235Z,93.76
2023-02-11T19:11:52.351Z,93.86
2023-02-11T19:14:24.575Z,93.88
2023-02-11T19:16:55.605Z,93.99
2023-02-11T19:19:25.473Z,93.95
2023-02-11T19:21:53.507Z,93.77
2023-02-11T19:24:23.405Z,93.77
2023-02-11T19:26:53.348Z,94.03
2023-02-11T19:29:21.310Z,94.10
2023-02-11T19:31:49.994Z,93.85
2023-02-11T19:34:20.048Z,93.78
2023-02-11T19:36:49.538Z,93.87
2023-02-11T19:39:18.462Z,93.83
2023-02-11T19:41:46.305Z,93.63
2023-02-11T19:44:14.413Z,93.52
2023-02-11T19:46:42.188Z,93.64
2023-02-11T19:49:14.801Z,93.70
2023-02-11T19:51:42.453Z,93.64
2023-02-11T19:54:10.290Z,93.77
2023-02-11T19:56:38.024Z,93.72
2023-02-11T19:59:08.876Z,93.73
2023-02-11T20:01:37.098Z,93.69
2023-02-11T20:04:04.933Z,93.97
2023-02-11T20:06:34.292Z,93.49
2023-02-11T20:09:06.586Z,93.91
2023-02-11T20:11:35.548Z,93.83
2023-02-11T20:14:04.829Z,93.77
2023-02-11T20:16:47.539Z,93.64
2023-02-11T20:19:18.961Z,93.56
2023-02-11T20:21:49.054Z,93.64
2023-02-11T20:24:18.277Z,93.61
2023-02-11T20:26:48.595Z,93.39
2023-02-11T20:29:17.870Z,93.38
2023-02-11T20:31:45.909Z,93.36
2023-02-11T20:34:14.414Z,93.23
2023-02-11T20:36:42.241Z,93.50
2023-02-11T20:39:11.486Z,93.46
2023-02-11T20:41:41.845Z,93.41
2023-02-11T20:44:10.748Z,93.32
2023-02-11T20:46:41.953Z,93.03
2023-02-11T20:49:15.694Z,93.22
2023-02-11T20:51:46.006Z,93.08
2023-02-11T20:54:17.828Z,92.80
2023-02-11T20:56:48.502Z,92.89
2023-02-11T20:59:16.908Z,92.95
2023-02-11T21:01:48.358Z,92.88
2023-02-11T21:04:22.594Z,92.84
2023-02-11T21:06:53.738Z,92.81
2023-02-11T21:09:24.674Z,92.77
2023-02-11T21:11:54.301Z,93.02
2023-02-11T21:14:24.071Z,92.74
2023-02-11T21:16:52.474Z,92.54
2023-02-11T21:19:20.384Z,92.74
2023-02-11T21:21:48.421Z,92.21
2023-02-11T21:24:16.234Z,92.29
2023-02-11T21:26:44.132Z,91.92
2023-02-11T21:29:12.058Z,92.61
2023-02-11T21:31:40.160Z,92.04
2023-02-11T21:34:08.110Z,92.16
2023-02-11T21:36:35.906Z,92.03
2023-02-11T21:39:04.277Z,92.16
2023-02-11T21:41:32.070Z,92.06
2023-02-11T21:43:59.791Z,92.01
2023-02-11T21:46:27.890Z,91.84
2023-02-11T21:48:57.493Z,91.99
2023-02-11T21:51:26.337Z,91.98
2023-02-11T21:53:55.589Z,91.68
2023-02-11T21:56:24.341Z,91.56
2023-02-11T21:58:54.095Z,91.30
2023-02-11T22:01:31.145Z,91.37
2023-02-11T22:03:59.869Z,91.28
2023-02-11T22:06:31.151Z,90.97
2023-02-11T22:09:04.211Z,89.27
2023-02-11T22:11:32.083Z,88.66
2023-02-11T22:13:59.853Z,87.82
2023-02-11T22:16:28.748Z,87.48
2023-02-11T22:18:58.740Z,86.79
2023-02-11T22:21:27.967Z,86.60
2023-02-11T22:23:56.371Z,86.10
2023-02-11T22:26:26.769Z,84.38
2023-02-11T22:28:55.393Z,85.26
2023-02-11T22:31:26.799Z,84.00
2023-02-11T22:33:54.676Z,84.06
2023-02-11T22:36:33.551Z,85.36
2023-02-11T22:39:04.537Z,83.91
2023-02-11T22:41:33.370Z,82.64
2023-02-11T22:44:01.380Z,81.65
2023-02-11T22:46:29.106Z,82.46
2023-02-11T22:48:56.997Z,80.50
2023-02-11T22:51:28.101Z,82.00
2023-02-11T22:54:01.047Z,81.57
2023-02-11T22:56:30.989Z,82.39
2023-02-11T22:59:05.585Z,81.58
2023-02-11T23:01:34.220Z,81.73
2023-02-11T23:04:04.471Z,82.58
2023-02-11T23:06:32.237Z,81.46
2023-02-11T23:09:00.122Z,81.61
2023-02-11T23:11:30.060Z,80.70
2023-02-11T23:13:58.555Z,81.41
2023-02-11T23:16:30.899Z,81.70
2023-02-11T23:19:00.997Z,81.60
2023-02-11T23:21:31.885Z,81.80
2023-02-11T23:24:03.181Z,81.50
2023-02-11T23:26:31.547Z,81.54
2023-02-11T23:28:59.872Z,81.27
2023-02-11T23:31:35.102Z,81.13
2023-02-11T23:34:04.067Z,81.18
2023-02-11T23:36:32.397Z,80.98
2023-02-11T23:39:00.246Z,80.76
2023-02-11T23:41:28.142Z,80.66
2023-02-11T23:43:57.955Z,80.41
2023-02-11T23:46:27.030Z,80.77
2023-02-11T23:48:55.355Z,80.46
2023-02-11T23:51:24.007Z,80.30
2023-02-11T23:53:53.039Z,80.64
2023-02-11T23:56:24.057Z,80.01
2023-02-11T23:58:54.772Z,80.31
